sensor_id;sensor_type;location;lat;lon;timestamp;P1;durP1;ratioP1;P2;durP2;ratioP2
11531;SDS011;5822;51.000;5.874;2023-08-21T00:01:18;11.02;;;10.52;;
11531;SDS011;5822;51.000;5.874;2023-08-21T00:03:43;10.93;;;10.43;;
11531;SDS011;5822;51.000;5.874;2023-08-21T00:06:09;11.13;;;10.63;;
11531;SDS011;5822;51.000;5.874;2023-08-21T00:08:35;11.50;;;11.00;;
11531;SDS011;5822;51.000;5.874;2023-08-21T00:11:01;11.40;;;10.90;;
11531;SDS011;5822;51.000;5.874;2023-08-21T00:13:29;11.50;;;10.90;;
11531;SDS011;5822;51.000;5.874;2023-08-21T00:15:55;11.30;;;10.80;;
11531;SDS011;5822;51.000;5.874;2023-08-21T00:18:21;11.48;;;10.88;;
11531;SDS011;5822;51.000;5.874;2023-08-21T00:20:47;11.30;;;10.80;;
11531;SDS011;5822;51.000;5.874;2023-08-21T00:23:12;11.40;;;10.90;;
11531;SDS011;5822;51.000;5.874;2023-08-21T00:25:38;11.40;;;10.90;;
11531;SDS011;5822;51.000;5.874;2023-08-21T00:28:04;11.30;;;10.80;;
11531;SDS011;5822;51.000;5.874;2023-08-21T00:30:29;11.40;;;10.90;;
11531;SDS011;5822;51.000;5.874;2023-08-21T00:32:55;11.18;;;10.68;;
11531;SDS011;5822;51.000;5.874;2023-08-21T00:35:21;11.03;;;10.53;;
11531;SDS011;5822;51.000;5.874;2023-08-21T00:37:46;10.98;;;10.48;;
11531;SDS011;5822;51.000;5.874;2023-08-21T00:40:12;10.73;;;10.23;;
11531;SDS011;5822;51.000;5.874;2023-08-21T00:42:38;10.90;;;10.40;;
11531;SDS011;5822;51.000;5.874;2023-08-21T00:45:04;10.73;;;10.23;;
11531;SDS011;5822;51.000;5.874;2023-08-21T00:47:33;10.88;;;10.38;;
11531;SDS011;5822;51.000;5.874;2023-08-21T00:49:59;11.05;;;10.55;;
11531;SDS011;5822;51.000;5.874;2023-08-21T00:52:25;11.10;;;10.60;;
11531;SDS011;5822;51.000;5.874;2023-08-21T00:54:51;10.80;;;10.30;;
11531;SDS011;5822;51.000;5.874;2023-08-21T00:57:17;10.70;;;10.20;;
11531;SDS011;5822;51.000;5.874;2023-08-21T00:59:43;10.60;;;10.10;;
11531;SDS011;5822;51.000;5.874;2023-08-21T01:02:08;10.70;;;10.20;;
11531;SDS011;5822;51.000;5.874;2023-08-21T01:04:34;10.60;;;10.10;;
11531;SDS011;5822;51.000;5.874;2023-08-21T01:07:00;10.70;;;10.20;;
11531;SDS011;5822;51.000;5.874;2023-08-21T01:15:03;10.80;;;10.30;;
11531;SDS011;5822;51.000;5.874;2023-08-21T01:17:31;10.45;;;10.05;;
11531;SDS011;5822;51.000;5.874;2023-08-21T01:19:59;10.80;;;10.30;;
11531;SDS011;5822;51.000;5.874;2023-08-21T01:22:27;10.50;;;10.00;;
11531;SDS011;5822;51.000;5.874;2023-08-21T01:25:04;10.50;;;10.00;;
11531;SDS011;5822;51.000;5.874;2023-08-21T01:27:31;10.35;;;9.95;;
11531;SDS011;5822;51.000;5.874;2023-08-21T01:29:58;10.80;;;10.30;;
11531;SDS011;5822;51.000;5.874;2023-08-21T01:35:35;10.70;;;10.20;;
11531;SDS011;5822;51.000;5.874;2023-08-21T01:38:02;10.50;;;10.00;;
11531;SDS011;5822;51.000;5.874;2023-08-21T01:40:28;10.30;;;9.90;;
11531;SDS011;5822;51.000;5.874;2023-08-21T01:42:54;10.67;;;10.17;;
11531;SDS011;5822;51.000;5.874;2023-08-21T01:45:20;10.30;;;9.90;;
11531;SDS011;5822;51.000;5.874;2023-08-21T01:47:47;10.70;;;10.20;;
11531;SDS011;5822;51.000;5.874;2023-08-21T01:50:12;10.80;;;10.30;;
11531;SDS011;5822;51.000;5.874;2023-08-21T01:52:38;10.60;;;10.15;;
11531;SDS011;5822;51.000;5.874;2023-08-21T01:55:04;11.00;;;10.50;;
11531;SDS011;5822;51.000;5.874;2023-08-21T01:57:32;10.60;;;10.10;;
11531;SDS011;5822;51.000;5.874;2023-08-21T01:59:58;10.50;;;10.00;;
11531;SDS011;5822;51.000;5.874;2023-08-21T02:02:24;10.57;;;10.10;;
11531;SDS011;5822;51.000;5.874;2023-08-21T02:04:49;10.20;;;9.80;;
11531;SDS011;5822;51.000;5.874;2023-08-21T02:07:15;10.70;;;10.20;;
11531;SDS011;5822;51.000;5.874;2023-08-21T02:09:41;10.90;;;10.40;;
11531;SDS011;5822;51.000;5.874;2023-08-21T02:12:06;10.80;;;10.30;;
11531;SDS011;5822;51.000;5.874;2023-08-21T02:14:32;11.05;;;10.55;;
11531;SDS011;5822;51.000;5.874;2023-08-21T02:16:58;10.87;;;10.37;;
11531;SDS011;5822;51.000;5.874;2023-08-21T02:19:23;10.75;;;10.25;;
11531;SDS011;5822;51.000;5.874;2023-08-21T02:21:49;10.50;;;10.00;;
11531;SDS011;5822;51.000;5.874;2023-08-21T02:24:14;10.60;;;10.10;;
11531;SDS011;5822;51.000;5.874;2023-08-21T02:26:40;10.50;;;10.05;;
11531;SDS011;5822;51.000;5.874;2023-08-21T02:29:07;10.98;;;10.48;;
11531;SDS011;5822;51.000;5.874;2023-08-21T02:31:33;10.80;;;10.30;;
11531;SDS011;5822;51.000;5.874;2023-08-21T02:33:59;11.10;;;10.60;;
11531;SDS011;5822;51.000;5.874;2023-08-21T02:36:25;11.00;;;10.50;;
11531;SDS011;5822;51.000;5.874;2023-08-21T02:38:51;11.00;;;10.50;;
11531;SDS011;5822;51.000;5.874;2023-08-21T02:41:16;10.90;;;10.40;;
11531;SDS011;5822;51.000;5.874;2023-08-21T02:43:43;11.00;;;10.50;;
11531;SDS011;5822;51.000;5.874;2023-08-21T02:46:09;10.60;;;10.10;;
11531;SDS011;5822;51.000;5.874;2023-08-21T02:48:34;10.93;;;10.43;;
11531;SDS011;5822;51.000;5.874;2023-08-21T02:51:00;10.47;;;10.07;;
11531;SDS011;5822;51.000;5.874;2023-08-21T02:53:27;10.90;;;10.40;;
11531;SDS011;5822;51.000;5.874;2023-08-21T02:55:53;10.52;;;10.02;;
11531;SDS011;5822;51.000;5.874;2023-08-21T02:58:19;10.80;;;10.30;;
11531;SDS011;5822;51.000;5.874;2023-08-21T03:00:44;10.70;;;10.20;;
11531;SDS011;5822;51.000;5.874;2023-08-21T03:03:10;10.75;;;10.25;;
11531;SDS011;5822;51.000;5.874;2023-08-21T03:05:36;10.80;;;10.30;;
11531;SDS011;5822;51.000;5.874;2023-08-21T03:08:02;10.70;;;10.20;;
11531;SDS011;5822;51.000;5.874;2023-08-21T03:10:28;10.90;;;10.40;;
11531;SDS011;5822;51.000;5.874;2023-08-21T03:12:58;10.70;;;10.20;;
11531;SDS011;5822;51.000;5.874;2023-08-21T03:15:24;10.70;;;10.20;;
11531;SDS011;5822;51.000;5.874;2023-08-21T03:17:50;10.80;;;10.30;;
11531;SDS011;5822;51.000;5.874;2023-08-21T03:20:15;10.90;;;10.40;;
11531;SDS011;5822;51.000;5.874;2023-08-21T03:22:42;10.90;;;10.40;;
11531;SDS011;5822;51.000;5.874;2023-08-21T03:25:08;10.68;;;10.18;;
11531;SDS011;5822;51.000;5.874;2023-08-21T03:27:34;10.90;;;10.40;;
11531;SDS011;5822;51.000;5.874;2023-08-21T03:30:04;10.80;;;10.30;;
11531;SDS011;5822;51.000;5.874;2023-08-21T03:32:33;10.77;;;10.27;;
11531;SDS011;5822;51.000;5.874;2023-08-21T03:34:59;11.00;;;10.50;;
11531;SDS011;5822;51.000;5.874;2023-08-21T03:37:24;10.90;;;10.40;;
11531;SDS011;5822;51.000;5.874;2023-08-21T03:39:50;11.00;;;10.50;;
11531;SDS011;5822;51.000;5.874;2023-08-21T03:42:16;10.53;;;10.10;;
11531;SDS011;5822;51.000;5.874;2023-08-21T03:44:41;10.45;;;9.95;;
11531;SDS011;5822;51.000;5.874;2023-08-21T03:47:07;10.70;;;10.20;;
11531;SDS011;5822;51.000;5.874;2023-08-21T03:49:33;10.60;;;10.10;;
11531;SDS011;5822;51.000;5.874;2023-08-21T03:51:59;10.73;;;10.23;;
11531;SDS011;5822;51.000;5.874;2023-08-21T03:54:24;10.40;;;10.00;;
11531;SDS011;5822;51.000;5.874;2023-08-21T03:56:50;10.60;;;10.10;;
11531;SDS011;5822;51.000;5.874;2023-08-21T03:59:16;11.00;;;10.50;;
11531;SDS011;5822;51.000;5.874;2023-08-21T04:01:41;10.73;;;10.23;;
11531;SDS011;5822;51.000;5.874;2023-08-21T04:04:07;10.70;;;10.20;;
11531;SDS011;5822;51.000;5.874;2023-08-21T04:06:32;10.90;;;10.40;;
11531;SDS011;5822;51.000;5.874;2023-08-21T04:08:58;11.30;;;10.80;;
11531;SDS011;5822;51.000;5.874;2023-08-21T04:11:24;11.07;;;10.57;;
11531;SDS011;5822;51.000;5.874;2023-08-21T04:13:49;10.97;;;10.47;;
11531;SDS011;5822;51.000;5.874;2023-08-21T04:16:15;10.70;;;10.20;;
11531;SDS011;5822;51.000;5.874;2023-08-21T04:18:42;10.38;;;9.90;;
11531;SDS011;5822;51.000;5.874;2023-08-21T04:21:08;10.35;;;9.95;;
11531;SDS011;5822;51.000;5.874;2023-08-21T04:23:34;10.65;;;10.20;;
11531;SDS011;5822;51.000;5.874;2023-08-21T04:26:04;10.30;;;9.90;;
11531;SDS011;5822;51.000;5.874;2023-08-21T04:28:30;11.18;;;10.57;;
11531;SDS011;5822;51.000;5.874;2023-08-21T04:30:56;11.10;;;10.60;;
11531;SDS011;5822;51.000;5.874;2023-08-21T04:33:23;11.10;;;10.60;;
11531;SDS011;5822;51.000;5.874;2023-08-21T04:35:55;11.45;;;10.95;;
11531;SDS011;5822;51.000;5.874;2023-08-21T04:38:21;11.20;;;10.70;;
11531;SDS011;5822;51.000;5.874;2023-08-21T04:40:47;11.20;;;10.70;;
11531;SDS011;5822;51.000;5.874;2023-08-21T04:43:12;11.50;;;11.00;;
11531;SDS011;5822;51.000;5.874;2023-08-21T04:45:38;11.73;;;11.15;;
11531;SDS011;5822;51.000;5.874;2023-08-21T04:48:10;11.75;;;11.25;;
11531;SDS011;5822;51.000;5.874;2023-08-21T04:50:36;12.00;;;11.40;;
11531;SDS011;5822;51.000;5.874;2023-08-21T04:53:01;11.98;;;11.40;;
11531;SDS011;5822;51.000;5.874;2023-08-21T04:55:27;11.48;;;10.98;;
11531;SDS011;5822;51.000;5.874;2023-08-21T04:57:53;11.50;;;11.00;;
11531;SDS011;5822;51.000;5.874;2023-08-21T05:00:19;11.80;;;11.20;;
11531;SDS011;5822;51.000;5.874;2023-08-21T05:02:44;11.45;;;10.95;;
11531;SDS011;5822;51.000;5.874;2023-08-21T05:05:10;11.50;;;11.00;;
11531;SDS011;5822;51.000;5.874;2023-08-21T05:07:36;11.83;;;11.33;;
11531;SDS011;5822;51.000;5.874;2023-08-21T05:10:01;12.00;;;11.40;;
11531;SDS011;5822;51.000;5.874;2023-08-21T05:12:27;11.90;;;11.40;;
11531;SDS011;5822;51.000;5.874;2023-08-21T05:14:53;12.20;;;11.60;;
11531;SDS011;5822;51.000;5.874;2023-08-21T05:17:19;11.80;;;11.30;;
11531;SDS011;5822;51.000;5.874;2023-08-21T05:19:44;11.70;;;11.20;;
11531;SDS011;5822;51.000;5.874;2023-08-21T05:22:10;11.80;;;11.30;;
11531;SDS011;5822;51.000;5.874;2023-08-21T05:24:36;12.00;;;11.40;;
11531;SDS011;5822;51.000;5.874;2023-08-21T05:27:01;12.10;;;11.50;;
11531;SDS011;5822;51.000;5.874;2023-08-21T05:29:27;12.10;;;11.50;;
11531;SDS011;5822;51.000;5.874;2023-08-21T05:31:53;12.30;;;11.70;;
11531;SDS011;5822;51.000;5.874;2023-08-21T05:34:18;12.40;;;11.80;;
11531;SDS011;5822;51.000;5.874;2023-08-21T05:36:44;12.00;;;11.40;;
11531;SDS011;5822;51.000;5.874;2023-08-21T05:39:09;12.00;;;11.50;;
11531;SDS011;5822;51.000;5.874;2023-08-21T05:41:35;12.00;;;11.40;;
11531;SDS011;5822;51.000;5.874;2023-08-21T05:44:01;12.10;;;11.50;;
11531;SDS011;5822;51.000;5.874;2023-08-21T05:46:27;12.30;;;11.70;;
11531;SDS011;5822;51.000;5.874;2023-08-21T05:48:53;12.50;;;11.90;;
11531;SDS011;5822;51.000;5.874;2023-08-21T05:51:19;12.30;;;11.70;;
11531;SDS011;5822;51.000;5.874;2023-08-21T05:53:44;12.60;;;12.00;;
11531;SDS011;5822;51.000;5.874;2023-08-21T05:56:10;12.20;;;11.60;;
11531;SDS011;5822;51.000;5.874;2023-08-21T05:58:35;12.47;;;11.87;;
11531;SDS011;5822;51.000;5.874;2023-08-21T06:01:01;12.30;;;11.70;;
11531;SDS011;5822;51.000;5.874;2023-08-21T06:03:27;12.60;;;12.00;;
11531;SDS011;5822;51.000;5.874;2023-08-21T06:05:53;13.00;;;12.40;;
11531;SDS011;5822;51.000;5.874;2023-08-21T06:08:20;13.20;;;12.60;;
11531;SDS011;5822;51.000;5.874;2023-08-21T06:10:50;13.27;;;12.60;;
11531;SDS011;5822;51.000;5.874;2023-08-21T06:13:16;13.10;;;12.50;;
11531;SDS011;5822;51.000;5.874;2023-08-21T06:15:43;14.07;;;13.47;;
11531;SDS011;5822;51.000;5.874;2023-08-21T06:18:09;14.18;;;13.57;;
11531;SDS011;5822;51.000;5.874;2023-08-21T06:20:35;14.38;;;13.70;;
11531;SDS011;5822;51.000;5.874;2023-08-21T06:23:01;14.70;;;14.00;;
11531;SDS011;5822;51.000;5.874;2023-08-21T06:25:27;14.60;;;13.90;;
11531;SDS011;5822;51.000;5.874;2023-08-21T06:27:55;14.15;;;13.50;;
11531;SDS011;5822;51.000;5.874;2023-08-21T06:30:21;13.30;;;12.70;;
11531;SDS011;5822;51.000;5.874;2023-08-21T06:32:46;13.13;;;12.52;;
11531;SDS011;5822;51.000;5.874;2023-08-21T06:35:12;13.20;;;12.60;;
11531;SDS011;5822;51.000;5.874;2023-08-21T06:37:40;12.80;;;12.20;;
11531;SDS011;5822;51.000;5.874;2023-08-21T06:40:05;13.18;;;12.48;;
11531;SDS011;5822;51.000;5.874;2023-08-21T06:42:32;13.20;;;12.60;;
11531;SDS011;5822;51.000;5.874;2023-08-21T06:44:57;13.10;;;12.50;;
11531;SDS011;5822;51.000;5.874;2023-08-21T06:47:23;13.20;;;12.57;;
11531;SDS011;5822;51.000;5.874;2023-08-21T06:49:48;13.20;;;12.60;;
11531;SDS011;5822;51.000;5.874;2023-08-21T06:52:14;12.90;;;12.30;;
11531;SDS011;5822;51.000;5.874;2023-08-21T06:54:40;13.25;;;12.55;;
11531;SDS011;5822;51.000;5.874;2023-08-21T06:57:05;13.40;;;12.70;;
11531;SDS011;5822;51.000;5.874;2023-08-21T06:59:31;13.10;;;12.50;;
11531;SDS011;5822;51.000;5.874;2023-08-21T07:02:01;13.10;;;12.40;;
11531;SDS011;5822;51.000;5.874;2023-08-21T07:04:29;13.10;;;12.50;;
11531;SDS011;5822;51.000;5.874;2023-08-21T07:06:55;13.10;;;12.50;;
11531;SDS011;5822;51.000;5.874;2023-08-21T07:09:20;13.13;;;12.53;;
11531;SDS011;5822;51.000;5.874;2023-08-21T07:11:46;13.50;;;12.80;;
11531;SDS011;5822;51.000;5.874;2023-08-21T07:14:11;13.27;;;12.60;;
11531;SDS011;5822;51.000;5.874;2023-08-21T07:16:40;13.40;;;12.73;;
11531;SDS011;5822;51.000;5.874;2023-08-21T07:19:05;12.90;;;12.30;;
11531;SDS011;5822;51.000;5.874;2023-08-21T07:21:31;13.20;;;12.60;;
11531;SDS011;5822;51.000;5.874;2023-08-21T07:23:59;13.10;;;12.50;;
11531;SDS011;5822;51.000;5.874;2023-08-21T07:26:25;13.05;;;12.45;;
11531;SDS011;5822;51.000;5.874;2023-08-21T07:28:51;13.20;;;12.50;;
11531;SDS011;5822;51.000;5.874;2023-08-21T07:31:18;13.20;;;12.50;;
11531;SDS011;5822;51.000;5.874;2023-08-21T07:33:43;13.30;;;12.60;;
11531;SDS011;5822;51.000;5.874;2023-08-21T07:36:09;13.00;;;12.40;;
11531;SDS011;5822;51.000;5.874;2023-08-21T07:38:40;13.40;;;12.70;;
11531;SDS011;5822;51.000;5.874;2023-08-21T07:41:09;13.10;;;12.50;;
11531;SDS011;5822;51.000;5.874;2023-08-21T07:43:36;13.00;;;12.40;;
11531;SDS011;5822;51.000;5.874;2023-08-21T07:46:03;12.67;;;12.07;;
11531;SDS011;5822;51.000;5.874;2023-08-21T07:48:29;13.10;;;12.50;;
11531;SDS011;5822;51.000;5.874;2023-08-21T07:50:55;13.00;;;12.40;;
11531;SDS011;5822;51.000;5.874;2023-08-21T07:53:21;12.98;;;12.38;;
11531;SDS011;5822;51.000;5.874;2023-08-21T07:55:47;13.03;;;12.33;;
11531;SDS011;5822;51.000;5.874;2023-08-21T07:58:13;12.80;;;12.20;;
11531;SDS011;5822;51.000;5.874;2023-08-21T08:00:39;13.00;;;12.40;;
11531;SDS011;5822;51.000;5.874;2023-08-21T08:03:07;12.90;;;12.30;;
11531;SDS011;5822;51.000;5.874;2023-08-21T08:05:33;13.07;;;12.45;;
11531;SDS011;5822;51.000;5.874;2023-08-21T08:07:59;13.07;;;12.48;;
11531;SDS011;5822;51.000;5.874;2023-08-21T08:10:25;12.65;;;12.05;;
11531;SDS011;5822;51.000;5.874;2023-08-21T08:12:51;12.87;;;12.27;;
11531;SDS011;5822;51.000;5.874;2023-08-21T08:15:17;12.83;;;12.23;;
11531;SDS011;5822;51.000;5.874;2023-08-21T08:17:43;12.50;;;11.90;;
11531;SDS011;5822;51.000;5.874;2023-08-21T08:20:11;13.00;;;12.35;;
11531;SDS011;5822;51.000;5.874;2023-08-21T08:22:37;12.93;;;12.32;;
11531;SDS011;5822;51.000;5.874;2023-08-21T08:25:03;12.68;;;12.07;;
11531;SDS011;5822;51.000;5.874;2023-08-21T08:27:31;12.85;;;12.25;;
11531;SDS011;5822;51.000;5.874;2023-08-21T08:29:57;13.20;;;12.60;;
11531;SDS011;5822;51.000;5.874;2023-08-21T08:32:23;13.20;;;12.60;;
11531;SDS011;5822;51.000;5.874;2023-08-21T08:34:48;13.20;;;12.60;;
11531;SDS011;5822;51.000;5.874;2023-08-21T08:37:14;13.70;;;13.10;;
11531;SDS011;5822;51.000;5.874;2023-08-21T08:39:40;16.42;;;15.63;;
11531;SDS011;5822;51.000;5.874;2023-08-21T08:42:05;16.27;;;15.50;;
11531;SDS011;5822;51.000;5.874;2023-08-21T08:44:34;14.75;;;14.05;;
11531;SDS011;5822;51.000;5.874;2023-08-21T08:47:02;14.80;;;14.10;;
11531;SDS011;5822;51.000;5.874;2023-08-21T08:49:28;14.77;;;14.07;;
11531;SDS011;5822;51.000;5.874;2023-08-21T08:51:55;14.88;;;14.18;;
11531;SDS011;5822;51.000;5.874;2023-08-21T08:54:22;16.13;;;15.32;;
11531;SDS011;5822;51.000;5.874;2023-08-21T08:56:52;16.40;;;15.60;;
11531;SDS011;5822;51.000;5.874;2023-08-21T08:59:18;17.85;;;16.95;;
11531;SDS011;5822;51.000;5.874;2023-08-21T09:01:44;14.23;;;13.60;;
11531;SDS011;5822;51.000;5.874;2023-08-21T09:04:10;13.83;;;13.17;;
11531;SDS011;5822;51.000;5.874;2023-08-21T09:06:36;14.00;;;13.30;;
11531;SDS011;5822;51.000;5.874;2023-08-21T09:09:02;14.73;;;14.02;;
11531;SDS011;5822;51.000;5.874;2023-08-21T09:11:29;14.23;;;13.52;;
11531;SDS011;5822;51.000;5.874;2023-08-21T09:13:55;13.97;;;13.37;;
11531;SDS011;5822;51.000;5.874;2023-08-21T09:16:22;14.00;;;13.40;;
11531;SDS011;5822;51.000;5.874;2023-08-21T09:18:50;13.90;;;13.30;;
11531;SDS011;5822;51.000;5.874;2023-08-21T09:21:22;15.40;;;14.70;;
11531;SDS011;5822;51.000;5.874;2023-08-21T09:23:50;14.57;;;13.87;;
11531;SDS011;5822;51.000;5.874;2023-08-21T09:26:30;14.35;;;13.75;;
11531;SDS011;5822;51.000;5.874;2023-08-21T09:29:00;14.60;;;13.90;;
11531;SDS011;5822;51.000;5.874;2023-08-21T09:31:29;15.20;;;14.50;;
11531;SDS011;5822;51.000;5.874;2023-08-21T09:34:00;16.77;;;15.97;;
11531;SDS011;5822;51.000;5.874;2023-08-21T09:36:30;16.92;;;16.13;;
11531;SDS011;5822;51.000;5.874;2023-08-21T09:38:56;17.38;;;16.48;;
11531;SDS011;5822;51.000;5.874;2023-08-21T09:41:22;17.43;;;16.63;;
11531;SDS011;5822;51.000;5.874;2023-08-21T09:43:48;14.82;;;14.13;;
11531;SDS011;5822;51.000;5.874;2023-08-21T09:46:15;14.95;;;14.25;;
11531;SDS011;5822;51.000;5.874;2023-08-21T09:48:43;14.13;;;13.52;;
11531;SDS011;5822;51.000;5.874;2023-08-21T09:51:11;15.10;;;14.40;;
11531;SDS011;5822;51.000;5.874;2023-08-21T09:53:37;16.00;;;15.30;;
11531;SDS011;5822;51.000;5.874;2023-08-21T09:56:04;17.20;;;16.40;;
11531;SDS011;5822;51.000;5.874;2023-08-21T09:58:30;16.80;;;16.02;;
11531;SDS011;5822;51.000;5.874;2023-08-21T10:00:57;17.07;;;16.27;;
11531;SDS011;5822;51.000;5.874;2023-08-21T10:03:24;16.77;;;16.08;;
11531;SDS011;5822;51.000;5.874;2023-08-21T10:05:50;16.13;;;15.43;;
11531;SDS011;5822;51.000;5.874;2023-08-21T10:08:21;16.73;;;15.93;;
11531;SDS011;5822;51.000;5.874;2023-08-21T10:10:50;16.77;;;16.08;;
11531;SDS011;5822;51.000;5.874;2023-08-21T10:13:16;16.90;;;16.20;;
11531;SDS011;5822;51.000;5.874;2023-08-21T10:15:42;17.10;;;16.30;;
11531;SDS011;5822;51.000;5.874;2023-08-21T10:20:54;14.73;;;14.10;;
11531;SDS011;5822;51.000;5.874;2023-08-21T10:23:24;15.00;;;14.30;;
11531;SDS011;5822;51.000;5.874;2023-08-21T10:25:54;16.05;;;15.35;;
11531;SDS011;5822;51.000;5.874;2023-08-21T10:28:24;15.90;;;15.20;;
11531;SDS011;5822;51.000;5.874;2023-08-21T10:30:50;16.70;;;16.00;;
11531;SDS011;5822;51.000;5.874;2023-08-21T10:33:16;16.50;;;15.80;;
11531;SDS011;5822;51.000;5.874;2023-08-21T10:35:44;15.75;;;15.05;;
11531;SDS011;5822;51.000;5.874;2023-08-21T10:38:11;15.32;;;14.63;;
11531;SDS011;5822;51.000;5.874;2023-08-21T10:40:40;15.87;;;15.17;;
11531;SDS011;5822;51.000;5.874;2023-08-21T10:46:04;15.70;;;15.00;;
11531;SDS011;5822;51.000;5.874;2023-08-21T10:48:30;15.23;;;14.53;;
11531;SDS011;5822;51.000;5.874;2023-08-21T10:50:57;15.10;;;14.40;;
11531;SDS011;5822;51.000;5.874;2023-08-21T10:53:26;15.50;;;14.80;;
11531;SDS011;5822;51.000;5.874;2023-08-21T10:55:53;15.85;;;15.15;;
11531;SDS011;5822;51.000;5.874;2023-08-21T10:58:19;13.85;;;13.25;;
11531;SDS011;5822;51.000;5.874;2023-08-21T11:00:45;13.38;;;12.77;;
11531;SDS011;5822;51.000;5.874;2023-08-21T11:03:11;14.30;;;13.60;;
11531;SDS011;5822;51.000;5.874;2023-08-21T11:05:36;14.15;;;13.48;;
11531;SDS011;5822;51.000;5.874;2023-08-21T11:08:02;14.60;;;13.90;;
11531;SDS011;5822;51.000;5.874;2023-08-21T11:10:31;15.07;;;14.38;;
11531;SDS011;5822;51.000;5.874;2023-08-21T11:12:57;15.73;;;15.02;;
11531;SDS011;5822;51.000;5.874;2023-08-21T11:15:25;15.93;;;15.23;;
11531;SDS011;5822;51.000;5.874;2023-08-21T11:17:56;16.50;;;15.60;;
11531;SDS011;5822;51.000;5.874;2023-08-21T11:20:27;16.88;;;16.08;;
11531;SDS011;5822;51.000;5.874;2023-08-21T11:23:00;16.80;;;16.02;;
11531;SDS011;5822;51.000;5.874;2023-08-21T11:25:28;17.60;;;16.80;;
11531;SDS011;5822;51.000;5.874;2023-08-21T11:27:55;17.33;;;16.52;;
11531;SDS011;5822;51.000;5.874;2023-08-21T11:30:24;17.50;;;16.70;;
11531;SDS011;5822;51.000;5.874;2023-08-21T11:35:35;17.42;;;16.63;;
11531;SDS011;5822;51.000;5.874;2023-08-21T11:38:03;17.67;;;16.88;;
11531;SDS011;5822;51.000;5.874;2023-08-21T11:40:29;17.15;;;16.35;;
11531;SDS011;5822;51.000;5.874;2023-08-21T11:42:59;16.57;;;15.87;;
11531;SDS011;5822;51.000;5.874;2023-08-21T11:45:25;16.80;;;16.00;;
11531;SDS011;5822;51.000;5.874;2023-08-21T11:47:51;14.50;;;13.80;;
11531;SDS011;5822;51.000;5.874;2023-08-21T11:50:21;14.73;;;14.02;;
11531;SDS011;5822;51.000;5.874;2023-08-21T11:52:47;14.70;;;14.00;;
11531;SDS011;5822;51.000;5.874;2023-08-21T11:55:15;14.73;;;14.13;;
11531;SDS011;5822;51.000;5.874;2023-08-21T11:57:46;16.02;;;15.32;;
11531;SDS011;5822;51.000;5.874;2023-08-21T12:00:15;16.02;;;15.32;;
11531;SDS011;5822;51.000;5.874;2023-08-21T12:02:57;15.77;;;15.07;;
11531;SDS011;5822;51.000;5.874;2023-08-21T12:05:24;16.15;;;15.45;;
11531;SDS011;5822;51.000;5.874;2023-08-21T12:07:51;16.17;;;15.47;;
11531;SDS011;5822;51.000;5.874;2023-08-21T12:10:24;16.70;;;15.90;;
11531;SDS011;5822;51.000;5.874;2023-08-21T12:12:50;17.40;;;16.60;;
11531;SDS011;5822;51.000;5.874;2023-08-21T12:15:16;18.17;;;17.33;;
11531;SDS011;5822;51.000;5.874;2023-08-21T12:17:42;16.88;;;16.08;;
11531;SDS011;5822;51.000;5.874;2023-08-21T12:20:08;16.88;;;16.08;;
11531;SDS011;5822;51.000;5.874;2023-08-21T12:22:35;16.95;;;16.15;;
11531;SDS011;5822;51.000;5.874;2023-08-21T12:25:02;16.92;;;16.13;;
11531;SDS011;5822;51.000;5.874;2023-08-21T12:27:29;14.73;;;14.02;;
11531;SDS011;5822;51.000;5.874;2023-08-21T12:29:54;14.60;;;13.90;;
11531;SDS011;5822;51.000;5.874;2023-08-21T12:32:20;14.13;;;13.43;;
11531;SDS011;5822;51.000;5.874;2023-08-21T12:34:46;15.38;;;14.57;;
11531;SDS011;5822;51.000;5.874;2023-08-21T12:37:11;17.50;;;16.70;;
11531;SDS011;5822;51.000;5.874;2023-08-21T12:39:37;17.88;;;17.08;;
11531;SDS011;5822;51.000;5.874;2023-08-21T12:42:02;17.27;;;16.47;;
11531;SDS011;5822;51.000;5.874;2023-08-21T12:44:29;17.58;;;16.73;;
11531;SDS011;5822;51.000;5.874;2023-08-21T12:46:55;17.37;;;16.57;;
11531;SDS011;5822;51.000;5.874;2023-08-21T12:49:20;17.80;;;16.90;;
11531;SDS011;5822;51.000;5.874;2023-08-21T12:51:46;19.27;;;18.43;;
11531;SDS011;5822;51.000;5.874;2023-08-21T12:54:12;18.85;;;18.05;;
11531;SDS011;5822;51.000;5.874;2023-08-21T12:56:37;15.93;;;15.23;;
11531;SDS011;5822;51.000;5.874;2023-08-21T12:59:04;16.23;;;15.52;;
11531;SDS011;5822;51.000;5.874;2023-08-21T13:01:30;15.15;;;14.45;;
11531;SDS011;5822;51.000;5.874;2023-08-21T13:03:59;16.63;;;15.82;;
11531;SDS011;5822;51.000;5.874;2023-08-21T13:06:25;16.95;;;16.20;;
11531;SDS011;5822;51.000;5.874;2023-08-21T13:08:51;17.67;;;16.88;;
11531;SDS011;5822;51.000;5.874;2023-08-21T13:11:17;18.20;;;17.40;;
11531;SDS011;5822;51.000;5.874;2023-08-21T13:13:43;18.65;;;17.85;;
11531;SDS011;5822;51.000;5.874;2023-08-21T13:16:09;15.50;;;14.80;;
11531;SDS011;5822;51.000;5.874;2023-08-21T13:18:34;15.68;;;14.98;;
11531;SDS011;5822;51.000;5.874;2023-08-21T13:21:00;15.30;;;14.60;;
11531;SDS011;5822;51.000;5.874;2023-08-21T13:23:25;15.98;;;15.27;;
11531;SDS011;5822;51.000;5.874;2023-08-21T13:25:53;16.23;;;15.52;;
11531;SDS011;5822;51.000;5.874;2023-08-21T13:28:19;17.95;;;17.15;;
11531;SDS011;5822;51.000;5.874;2023-08-21T13:30:44;17.80;;;17.00;;
11531;SDS011;5822;51.000;5.874;2023-08-21T13:33:10;17.00;;;16.20;;
11531;SDS011;5822;51.000;5.874;2023-08-21T13:35:36;14.50;;;13.80;;
11531;SDS011;5822;51.000;5.874;2023-08-21T13:38:01;14.70;;;14.00;;
11531;SDS011;5822;51.000;5.874;2023-08-21T13:40:28;14.00;;;13.40;;
11531;SDS011;5822;51.000;5.874;2023-08-21T13:42:54;15.80;;;15.10;;
11531;SDS011;5822;51.000;5.874;2023-08-21T13:45:20;15.98;;;15.27;;
11531;SDS011;5822;51.000;5.874;2023-08-21T13:47:48;17.17;;;16.37;;
11531;SDS011;5822;51.000;5.874;2023-08-21T13:50:14;17.80;;;17.00;;
11531;SDS011;5822;51.000;5.874;2023-08-21T13:52:41;17.77;;;16.98;;
11531;SDS011;5822;51.000;5.874;2023-08-21T13:55:08;17.63;;;16.83;;
11531;SDS011;5822;51.000;5.874;2023-08-21T13:57:35;16.30;;;15.60;;
11531;SDS011;5822;51.000;5.874;2023-08-21T14:00:02;14.90;;;14.20;;
11531;SDS011;5822;51.000;5.874;2023-08-21T14:02:35;14.82;;;14.13;;
11531;SDS011;5822;51.000;5.874;2023-08-21T14:05:01;15.40;;;14.70;;
11531;SDS011;5822;51.000;5.874;2023-08-21T14:07:29;16.83;;;16.13;;
11531;SDS011;5822;51.000;5.874;2023-08-21T14:09:58;16.00;;;15.30;;
11531;SDS011;5822;51.000;5.874;2023-08-21T14:12:24;16.40;;;15.70;;
11531;SDS011;5822;51.000;5.874;2023-08-21T14:14:50;17.02;;;16.23;;
11531;SDS011;5822;51.000;5.874;2023-08-21T14:17:16;16.58;;;15.88;;
11531;SDS011;5822;51.000;5.874;2023-08-21T14:19:42;14.10;;;13.47;;
11531;SDS011;5822;51.000;5.874;2023-08-21T14:22:07;13.60;;;13.00;;
11531;SDS011;5822;51.000;5.874;2023-08-21T14:24:33;13.80;;;13.20;;
11531;SDS011;5822;51.000;5.874;2023-08-21T14:26:58;14.10;;;13.50;;
11531;SDS011;5822;51.000;5.874;2023-08-21T14:29:24;15.00;;;14.40;;
11531;SDS011;5822;51.000;5.874;2023-08-21T14:31:50;14.95;;;14.30;;
11531;SDS011;5822;51.000;5.874;2023-08-21T14:34:18;16.10;;;15.40;;
11531;SDS011;5822;51.000;5.874;2023-08-21T14:36:45;13.80;;;13.20;;
11531;SDS011;5822;51.000;5.874;2023-08-21T14:39:14;14.25;;;13.65;;
11531;SDS011;5822;51.000;5.874;2023-08-21T14:41:41;14.20;;;13.50;;
11531;SDS011;5822;51.000;5.874;2023-08-21T14:44:07;14.40;;;13.70;;
11531;SDS011;5822;51.000;5.874;2023-08-21T14:46:33;16.00;;;15.27;;
11531;SDS011;5822;51.000;5.874;2023-08-21T14:48:59;15.90;;;15.20;;